Station: Canungra (Defence)  

  Atmospheric Gas Attenuation - ITU Rec 676-11   ----------------- dB/100km -----------------
Date Time Temp RH % AH g/m3 Dew Point Wind Direction Speed kph Gust kph Barometer mB Rainfall Since 9am 24GHz 47GHz 76GHz 122GHz 134GHz 241GHz
08/05 12:30 21.1 30 5.53 2.9 6 11 1013.1 0 12.8 19.6 25.8 67.2 54.9 186.9
08/05 12:20 20.4 30 5.31 2.2 6 7 1013.1 0 12.4 19.5 25.3 65.8 53.1 180.2
08/05 12:10 20.7 29 5.22 2 9 11 1013.1 0 12.2 19.3 24.9 64.8 51.9 176.2
08/05 12:00 20 30 5.18 1.9 6 9 1013.1 0 12.1 19.4 25.0 65.0 51.9 176.2
08/05 11:50 19.6 29 4.9 1.1 6 7 1013.1 0 11.5 19.1 24.2 62.9 49.2 166.6
08/05 11:40 19.7 32 5.43 2.5 7 13 1013.1 0 12.7 19.8 25.9 67.4 54.8 186.3
08/05 11:30 19.6 35 5.91 3.7 6 9 1013.1 0 13.7 20.4 27.5 71.8 60.1 205.0
08/05 11:20 19.4 36 6.01 3.9 6 7 1013.1 0 13.9 20.6 27.9 72.8 61.4 209.4
08/05 11:10 19 33 5.38 2.3 4 6 1013.1 0 12.6 19.8 26.0 67.6 54.7 186.0
08/05 11:00 18.7 35 5.6 2.9 6 9 1013.1 0 13.0 20.2 26.8 69.8 57.4 195.1
08/05 10:50 18.5 35 5.54 2.7 6 6 1013.1 0 12.9 20.2 26.7 69.4 56.8 193.3
08/05 10:40 18.3 35 5.47 2.6 6 6 1013.1 0 12.8 20.1 26.5 68.9 56.2 191.0
08/05 10:30 17.9 37 5.65 3 6 9 1013.1 0 13.2 20.4 27.2 70.9 58.5 199.0
08/05 10:20 17.9 40 6.11 4.1 4 4 1013.1 0 14.1 21.1 28.8 75.1 63.7 217.2
08/05 10:10 17.3 41 6.04 3.9 4 4 1013.1 0 14.0 21.1 28.8 75.0 63.3 216.0
08/05 10:00 16.9 39 5.61 2.9 4 7 1013.1 0 13.1 20.6 27.4 71.4 58.8 199.8
08/05 09:50 16.8 39 5.58 2.7 4 6 1013.1 0 13.1 20.6 27.4 71.2 58.5 198.9
08/05 09:40 16.6 46 6.5 4.9 2 2 1013.1 0 15.0 21.9 30.6 80.0 69.2 236.6
08/05 09:30 16 39 5.31 2.1 4 7 1013.1 0 12.5 20.4 26.7 69.4 56.0 190.1
08/05 09:20 15.9 47 6.36 4.6 4 7 1013.1 0 14.7 21.9 30.4 79.3 68.2 232.9
08/05 09:10 15.1 50 6.45 4.7 6 6 1013.1 0 15.0 22.2 31.0 81.0 70.0 239.0
08/05 09:00 14.8 62 7.85 7.6 2 4 1013.1 0 17.9 24.4 36.4 95.3 87.5 300.4
08/05 08:50 13.4 63 7.32 6.5 0 0 1013.1 0 16.9 24.0 35.0 91.5 82.3 282.0
08/05 08:40 13.1 75 8.56 8.9 0 0 1013.1 0 19.5 26.0 40.0 104.9 98.7 339.6
08/05 08:30 12.7 76 8.46 8.6 0 0 1013.1 0 19.3 26.0 39.8 104.4 97.9 336.7
08/05 08:20 11.4 95 9.75 10.6 0 0 1013.1 0 22.2 28.6 45.9 120.7 117.5 405.1
08/05 08:10 9.4 100 9.05 9.4 0 0 1013.1 0 20.8 28.0 44.0 115.7 110.5 380.4
08/05 08:00 9.2 100 8.93 9.2 0 0 1013.1 0 20.5 27.8 43.6 114.6 109.1 375.4
08/05 07:50 8.5 100 8.54 8.5 0 0 1013.1 0 19.7 27.4 42.3 111.1 104.6 359.3
08/05 07:40 7.3 100 7.9 7.3 0 0 1013.1 0 18.4 26.7 40.2 105.4 97.1 333.0
08/05 07:30 6.2 99 7.28 6.1 0 0 1013.1 0 17.1 25.9 38.1 99.8 89.7 307.2
08/05 07:20 5.7 99 7.05 5.5 0 0 1013.1 0 16.6 25.7 37.4 97.9 87.1 297.9
08/05 07:10 5.5 99 6.96 5.3 2 2 1013.1 0 16.4 25.6 37.1 97.1 86.1 294.3
08/05 07:00 5.3 99 6.87 5.2 0 0 1013.1 0 16.3 25.5 36.8 96.3 85.1 290.6
08/05 06:50 4.9 98 6.62 4.6 0 0 1013.1 0 15.7 25.2 35.9 94.0 82.0 280.0
08/05 06:40 5.2 98 6.75 4.9 0 0 1013.1 0 16.0 25.3 36.3 95.1 83.5 285.2
08/05 06:30 5.5 98 6.89 5.2 0 0 1013.1 0 16.3 25.5 36.8 96.3 85.1 290.9
08/05 06:20 5.8 99 7.1 5.6 0 0 1013.1 0 16.7 25.7 37.5 98.3 87.7 299.9
08/05 06:10 5.6 98 6.93 5.3 0 0 1013.1 0 16.4 25.5 36.9 96.6 85.6 292.4
08/05 06:00 5.7 98 6.98 5.4 0 0 1013.1 0 16.5 25.6 37.1 97.1 86.1 294.5
08/05 05:50 5.6 98 6.93 5.3 0 0 1013.1 0 16.4 25.5 36.9 96.6 85.6 292.4
08/05 05:40 6 98 7.12 5.7 0 0 1013.1 0 16.8 25.7 37.5 98.3 87.8 300.1
08/05 05:30 5.8 98 7.02 5.5 0 0 1013.1 0 16.6 25.6 37.2 97.4 86.6 296.0
08/05 05:20 6.3 98 7.26 6 0 0 1013.1 0 17.1 25.9 38.0 99.5 89.4 305.8
08/05 05:10 6.3 97 7.18 5.8 0 0 1013.1 0 16.9 25.7 37.6 98.6 88.2 301.9
08/05 05:00 6.4 97 7.23 6 0 0 1013.1 0 17.0 25.8 37.8 99.0 88.8 303.9
08/05 04:50 6.5 97 7.28 6 0 0 1013.1 0 17.1 25.8 38.0 99.5 89.4 306.0
08/05 04:40 6.9 97 7.47 6.4 0 0 1013.1 0 17.5 26.0 38.6 101.1 91.6 313.6
08/05 04:30 6.7 96 7.3 6.1 0 0 1013.1 0 17.1 25.8 37.9 99.4 89.4 306.2
08/05 04:20 7.1 97 7.57 6.6 0 0 1013.1 0 17.7 26.1 38.9 101.9 92.7 317.7
08/05 04:10 7.2 96 7.54 6.6 0 0 1013.1 0 17.6 26.1 38.7 101.5 92.2 315.8
08/05 04:00 7.4 96 7.64 6.8 0 0 1013.1 0 17.8 26.2 39.0 102.3 93.3 319.9
08/05 03:50 7.2 95 7.46 6.4 0 0 1013.1 0 17.4 25.9 38.4 100.6 91.1 311.9
08/05 03:40 7.4 95 7.56 6.6 0 0 1013.1 0 17.7 26.0 38.7 101.4 92.2 316.0
08/05 03:30 7.5 93 7.45 6.4 0 0 1013.1 0 17.4 25.8 38.2 100.1 90.6 310.3
08/05 03:20 7.8 93 7.59 6.7 0 0 1013.1 0 17.7 26.0 38.6 101.3 92.2 315.8
08/05 03:10 8.1 91 7.58 6.7 0 0 1013.1 0 17.7 25.9 38.4 100.8 91.7 314.1
08/05 03:00 8.3 91 7.67 6.9 0 0 1013.1 0 17.8 26.0 38.7 101.5 92.7 317.6
08/05 02:50 8.6 90 7.74 7 0 0 1013.1 0 18.0 26.0 38.9 101.9 93.3 319.8
08/05 02:40 8.9 90 7.89 7.3 0 0 1013.1 0 18.3 26.2 39.3 103.2 95.0 325.8
08/05 02:30 9.2 88 7.86 7.3 2 6 1013.1 0 18.2 26.0 39.1 102.4 94.2 323.1
08/05 02:20 9.5 85 7.74 7.1 0 0 1013.1 0 17.9 25.7 38.4 100.7 92.2 316.1
08/05 02:10 9.7 85 7.84 7.4 2 4 1013.1 0 18.2 25.8 38.7 101.6 93.3 320.1
08/05 02:00 9.5 86 7.83 7.3 0 4 1013.1 0 18.1 25.9 38.8 101.7 93.4 320.4
08/05 01:50 9.7 88 8.11 7.8 0 0 1013.1 0 18.7 26.3 39.9 104.6 97.0 333.0
08/05 01:40 9.7 85 7.84 7.3 0 0 1013.1 0 18.2 25.8 38.7 101.6 93.3 320.1
08/05 01:30 10.1 85 8.04 7.7 2 6 1013.1 0 18.6 26.1 39.4 103.2 95.5 327.9
08/05 01:20 9.8 85 7.89 7.4 6 7 1013.1 0 18.3 25.9 38.9 102.0 93.8 322.0
08/05 01:10 10.3 83 7.95 7.5 4 4 1013.1 0 18.4 25.8 38.9 102.0 94.1 322.8
08/05 01:00 10.9 77 7.66 7 0 0 1013.1 0 17.7 25.2 37.4 98.1 89.5 306.8
08/05 00:50 12.1 73 7.83 7.4 0 0 1013.1 0 18.0 25.1 37.5 98.4 90.3 309.9
08/05 00:40 12.4 73 7.98 7.7 6 7 1013.1 0 18.3 25.3 38.0 99.6 91.9 315.7
08/05 00:30 11.2 78 7.91 7.5 0 6 1013.1 0 18.2 25.5 38.3 100.4 92.4 317.2
08/05 00:20 11.8 73 7.68 7.1 2 4 1013.1 0 17.7 25.0 37.1 97.2 88.7 304.2
08/05 00:10 11.4 74 7.6 6.9 4 4 1013.1 0 17.6 25.0 36.9 96.8 88.1 302.1
08/05 00:00 11.9 72 7.63 7 2 6 1013.1 0 17.6 24.9 36.8 96.5 87.9 301.5
07/05 23:50 13.1 66 7.53 6.9 0 0 1013.1 0 17.3 24.4 35.9 94.0 85.3 292.5
07/05 23:40 12.5 73 8.03 7.8 4 4 1013.1 0 18.4 25.3 38.1 100.0 92.5 317.6
07/05 23:30 13.2 67 7.69 7.2 4 6 1013.1 0 17.7 24.6 36.5 95.6 87.2 299.3
07/05 23:20 13.8 70 8.34 8.4 4 4 1013.1 0 19.0 25.5 38.8 101.7 95.0 326.5
07/05 23:10 16.1 50 6.85 5.9 0 2 1013.1 0 15.8 22.6 32.1 83.9 73.8 252.7
07/05 23:00 16.3 50 6.94 5.9 7 13 1013.1 0 16.0 22.7 32.3 84.5 74.7 255.9
07/05 22:50 16.2 51 7.03 6 7 9 1013.1 0 16.1 22.8 32.7 85.5 75.9 260.0
07/05 22:40 15.5 59 7.8 7.5 4 6 1013.1 0 17.8 24.2 35.9 94.0 86.1 295.6
07/05 22:30 17.1 47 6.84 5.7 7 15 1013.1 0 15.7 22.3 31.7 82.7 72.8 249.2
07/05 22:20 16.1 49 6.72 5.4 9 15 1013.1 0 15.5 22.4 31.6 82.6 72.3 247.3
07/05 22:10 16.5 51 7.16 6.3 9 17 1013.1 0 16.4 22.9 33.0 86.5 77.2 264.5
07/05 22:00 17 49 7.09 6.2 4 9 1013.1 0 16.2 22.7 32.6 85.2 75.9 260.0
07/05 21:50 17.4 44 6.52 5 7 7 1013.1 0 15.0 21.8 30.4 79.4 68.8 235.1
07/05 21:40 17.1 47 6.84 5.7 6 7 1013.1 0 15.7 22.3 31.7 82.7 72.8 249.2
07/05 21:30 16.2 59 8.14 8.2 4 7 1013.1 0 18.5 24.5 36.8 96.6 89.6 307.9
07/05 21:20 17.8 40 6.07 4.3 7 9 1013.1 0 14.1 21.1 28.7 74.8 63.3 215.9
07/05 21:10 17.9 40 6.11 4.1 9 11 1013.1 0 14.1 21.1 28.8 75.1 63.7 217.2
07/05 21:00 17.4 46 6.82 5.7 4 9 1013.1 0 15.7 22.2 31.5 82.2 72.3 247.5
07/05 20:50 16.8 45 6.43 4.8 6 7 1013.1 0 14.9 21.8 30.3 79.1 68.3 233.2
07/05 20:40 15.6 59 7.85 7.6 0 0 1013.1 0 17.9 24.2 36.0 94.3 86.6 297.4
07/05 20:30 18.4 39 6.13 4.2 6 11 1013.1 0 14.2 21.0 28.7 74.8 63.5 216.7
07/05 20:20 16.1 60 8.22 8.5 0 0 1013.1 0 18.7 24.6 37.2 97.5 90.7 311.8
07/05 20:10 15.7 57 7.63 7.2 2 4 1013.1 0 17.4 23.8 35.1 92.0 83.8 287.4
07/05 20:00 16.5 59 8.28 8.5 0 6 1013.1 0 18.8 24.6 37.2 97.6 91.0 312.9

Last Refresh: 08-May-2026 12:08:52

Bureau of Meteorology